createdAt,value
2019-02-27T00:00:09.128Z,18.03
2019-02-27T00:02:39.198Z,20.07
2019-02-27T00:05:08.994Z,18.40
2019-02-27T00:07:38.342Z,14.60
2019-02-27T00:10:11.032Z,18.53
2019-02-27T00:12:40.240Z,16.37
2019-02-27T00:15:11.019Z,18.13
2019-02-27T00:17:40.265Z,15.07
2019-02-27T00:20:09.517Z,18.23
2019-02-27T00:22:39.226Z,17.83
2019-02-27T00:25:08.435Z,18.60
2019-02-27T00:27:37.646Z,15.77
2019-02-27T00:30:07.386Z,16.43
2019-02-27T00:32:36.627Z,16.87
2019-02-27T00:35:07.200Z,13.43
2019-02-27T00:37:36.621Z,14.03
2019-02-27T00:40:06.286Z,14.33
2019-02-27T00:42:35.497Z,15.43
2019-02-27T00:45:07.042Z,11.70
2019-02-27T00:47:36.079Z,12.50
2019-02-27T00:50:06.540Z,13.37
2019-02-27T00:52:36.249Z,14.20
2019-02-27T00:55:06.021Z,13.73
2019-02-27T00:57:35.344Z,11.33
2019-02-27T01:00:06.595Z,10.87
2019-02-27T01:02:35.730Z,12.73
2019-02-27T01:05:06.259Z,16.60
2019-02-27T01:07:36.300Z,11.37
2019-02-27T01:10:06.217Z,11.93
2019-02-27T01:12:41.215Z,13.37
2019-02-27T01:15:11.220Z,13.27
2019-02-27T01:17:40.450Z,12.53
2019-02-27T01:20:11.515Z,11.87
2019-02-27T01:22:41.270Z,10.83
2019-02-27T01:25:10.612Z,12.20
2019-02-27T01:27:39.900Z,11.23
2019-02-27T01:30:10.717Z,10.90
2019-02-27T01:32:40.164Z,13.93
2019-02-27T01:35:09.671Z,10.97
2019-02-27T01:37:38.877Z,11.47
2019-02-27T01:40:09.971Z,14.77
2019-02-27T01:42:39.180Z,12.43
2019-02-27T01:45:10.744Z,11.00
2019-02-27T01:47:40.046Z,12.73
2019-02-27T01:50:29.686Z,11.43
2019-02-27T01:52:58.839Z,14.53
2019-02-27T01:55:28.211Z,13.93
2019-02-27T01:57:57.380Z,11.90
2019-02-27T02:00:26.549Z,8.97
2019-02-27T02:02:55.851Z,15.90
2019-02-27T02:05:27.455Z,12.70
2019-02-27T02:07:56.709Z,9.93
2019-02-27T02:10:28.278Z,10.67
2019-02-27T02:13:00.734Z,10.70
2019-02-27T02:15:55.396Z,15.07
2019-02-27T02:19:21.445Z,10.13
2019-02-27T02:22:14.187Z,11.77
2019-02-27T02:25:21.117Z,10.23
2019-02-27T02:28:32.398Z,12.37
2019-02-27T02:31:41.246Z,11.33
2019-02-27T02:34:48.681Z,13.13
2019-02-27T02:37:57.334Z,9.50
2019-02-27T02:41:07.964Z,13.80
2019-02-27T02:43:59.630Z,10.80
2019-02-27T02:46:54.031Z,10.57
2019-02-27T02:49:53.571Z,14.80
2019-02-27T02:52:52.256Z,10.33
2019-02-27T02:55:50.769Z,10.33
2019-02-27T02:58:25.974Z,11.43
2019-02-27T03:01:16.892Z,10.73
2019-02-27T03:03:51.033Z,10.70
2019-02-27T03:07:12.557Z,14.23
2019-02-27T03:10:07.142Z,11.90
2019-02-27T03:13:20.206Z,13.73
2019-02-27T03:16:03.983Z,12.43
2019-02-27T03:18:51.396Z,9.40
2019-02-27T03:22:07.847Z,10.27
2019-02-27T03:25:27.507Z,9.67
2019-02-27T03:28:32.209Z,9.17
2019-02-27T03:31:41.555Z,9.90
2019-02-27T03:34:51.377Z,9.77
2019-02-27T03:38:23.851Z,9.93
2019-02-27T03:41:49.304Z,11.83
2019-02-27T03:44:43.190Z,10.27
2019-02-27T03:47:36.418Z,11.30
2019-02-27T03:50:28.088Z,12.33
2019-02-27T03:53:56.546Z,14.60
2019-02-27T03:57:20.128Z,11.87
2019-02-27T04:00:19.209Z,11.93
2019-02-27T04:03:08.139Z,16.37
2019-02-27T04:06:01.122Z,11.87
2019-02-27T04:08:58.011Z,12.10
2019-02-27T04:11:27.479Z,10.07
2019-02-27T04:14:07.693Z,8.33
2019-02-27T04:16:38.084Z,9.63
2019-02-27T04:19:07.431Z,8.33
2019-02-27T04:21:36.661Z,9.63
2019-02-27T04:24:05.857Z,9.07
2019-02-27T04:26:35.059Z,10.50
2019-02-27T04:29:07.614Z,14.93
2019-02-27T04:31:35.377Z,11.53
2019-02-27T04:34:04.564Z,11.43
2019-02-27T04:36:36.172Z,10.73
2019-02-27T04:39:06.243Z,8.70
2019-02-27T04:41:35.361Z,8.23
2019-02-27T04:44:06.040Z,12.30
2019-02-27T04:46:35.395Z,11.77
2019-02-27T04:49:05.192Z,13.27
2019-02-27T04:51:34.487Z,7.57
2019-02-27T04:54:06.327Z,10.80
2019-02-27T04:56:34.584Z,12.03
2019-02-27T04:59:04.046Z,12.57
2019-02-27T05:01:36.373Z,13.63
2019-02-27T05:04:04.189Z,12.77
2019-02-27T05:06:33.378Z,9.97
2019-02-27T05:09:06.473Z,12.03
2019-02-27T05:11:38.667Z,14.63
2019-02-27T05:14:07.791Z,11.90
2019-02-27T05:16:39.133Z,14.43
2019-02-27T05:19:08.294Z,9.87
2019-02-27T05:21:37.601Z,11.23
2019-02-27T05:24:07.868Z,10.57
2019-02-27T05:26:37.984Z,36.20
2019-02-27T05:29:13.476Z,11.30
2019-02-27T05:31:45.901Z,14.60
2019-02-27T05:34:15.139Z,15.60
2019-02-27T05:36:44.520Z,12.67
2019-02-27T05:39:14.941Z,12.63
2019-02-27T05:41:44.908Z,13.53
2019-02-27T05:44:14.608Z,12.33
2019-02-27T05:46:43.905Z,11.20
2019-02-27T05:49:13.166Z,12.97
2019-02-27T05:51:42.466Z,16.33
2019-02-27T05:54:11.773Z,12.90
2019-02-27T05:56:41.058Z,17.67
2019-02-27T05:59:10.323Z,14.37
2019-02-27T06:01:42.413Z,11.40
2019-02-27T06:04:11.631Z,11.63
2019-02-27T06:06:45.162Z,17.50
2019-02-27T06:09:13.830Z,11.57
2019-02-27T06:11:45.335Z,9.53
2019-02-27T06:14:14.554Z,8.57
2019-02-27T06:16:45.605Z,10.77
2019-02-27T06:19:14.914Z,13.07
2019-02-27T06:21:44.180Z,11.00
2019-02-27T06:24:13.374Z,10.77
2019-02-27T06:26:42.650Z,12.23
2019-02-27T06:29:11.917Z,11.93
2019-02-27T06:31:41.139Z,8.77
2019-02-27T06:34:11.610Z,10.20
2019-02-27T06:36:42.849Z,11.73
2019-02-27T06:39:11.826Z,10.93
2019-02-27T06:41:41.076Z,12.03
2019-02-27T06:44:10.587Z,12.37
2019-02-27T06:46:41.930Z,13.33
2019-02-27T06:49:11.263Z,15.40
2019-02-27T06:51:40.439Z,14.67
2019-02-27T06:54:10.591Z,12.07
2019-02-27T06:56:39.853Z,9.73
2019-02-27T06:59:09.050Z,10.07
2019-02-27T07:01:38.965Z,8.73
2019-02-27T07:04:10.229Z,12.77
2019-02-27T07:06:39.441Z,13.30
2019-02-27T07:09:11.400Z,10.27
2019-02-27T07:11:39.835Z,14.17
2019-02-27T07:14:10.876Z,12.57
2019-02-27T07:16:40.113Z,10.53
2019-02-27T07:19:09.576Z,11.47
2019-02-27T07:21:38.768Z,11.63
2019-02-27T07:24:08.025Z,11.20
2019-02-27T07:26:37.239Z,13.80
2019-02-27T07:29:06.512Z,12.50
2019-02-27T07:31:35.752Z,13.40
2019-02-27T07:34:05.083Z,14.27
2019-02-27T07:36:35.951Z,16.20
2019-02-27T07:39:06.601Z,14.37
2019-02-27T07:41:36.115Z,12.70
2019-02-27T07:44:05.378Z,16.90
2019-02-27T07:46:35.591Z,9.13
2019-02-27T07:49:05.109Z,9.13
2019-02-27T07:51:34.315Z,10.53
2019-02-27T07:54:04.015Z,14.23
2019-02-27T07:56:33.452Z,11.03
2019-02-27T07:59:02.816Z,15.00
2019-02-27T08:01:32.036Z,15.80
2019-02-27T08:04:01.182Z,12.63
2019-02-27T08:06:30.563Z,13.07
2019-02-27T08:09:02.607Z,11.77
2019-02-27T08:11:32.390Z,13.80
2019-02-27T08:14:03.377Z,13.37
2019-02-27T08:16:32.687Z,13.97
2019-02-27T08:19:01.925Z,14.93
2019-02-27T08:21:31.480Z,14.80
2019-02-27T08:24:06.484Z,20.17
2019-02-27T08:26:31.738Z,12.67
2019-02-27T08:29:00.975Z,11.00
2019-02-27T08:31:32.054Z,18.23
2019-02-27T08:34:01.150Z,14.67
2019-02-27T08:36:30.377Z,16.00
2019-02-27T08:38:59.565Z,13.73
2019-02-27T08:41:29.177Z,11.93
2019-02-27T08:43:59.673Z,16.83
2019-02-27T08:46:28.838Z,14.10
2019-02-27T08:48:58.117Z,14.00
2019-02-27T08:51:27.611Z,21.93
2019-02-27T08:53:59.228Z,12.53
2019-02-27T08:56:29.926Z,14.70
2019-02-27T08:58:58.779Z,13.23
2019-02-27T09:01:27.981Z,16.97
2019-02-27T09:03:57.156Z,11.93
2019-02-27T09:06:27.501Z,14.47
2019-02-27T09:09:00.162Z,14.27
2019-02-27T09:11:29.422Z,11.10
2019-02-27T09:13:59.670Z,15.33
2019-02-27T09:16:28.897Z,17.33
2019-02-27T09:18:58.134Z,13.40
2019-02-27T09:21:28.547Z,13.00
2019-02-27T09:23:57.937Z,16.57
2019-02-27T09:26:27.145Z,11.43
2019-02-27T09:28:56.842Z,14.30
2019-02-27T09:31:26.061Z,13.50
2019-02-27T09:33:55.373Z,18.37
2019-02-27T09:36:24.590Z,13.70
2019-02-27T09:38:57.289Z,14.37
2019-02-27T09:41:24.734Z,13.23
2019-02-27T09:43:54.270Z,12.43
2019-02-27T09:46:23.610Z,15.07
2019-02-27T09:48:52.805Z,13.97
2019-02-27T09:51:22.188Z,15.77
2019-02-27T09:53:52.310Z,11.70
2019-02-27T09:56:21.558Z,13.57
2019-02-27T09:58:50.776Z,13.27
2019-02-27T10:01:20.060Z,14.67
2019-02-27T10:03:52.106Z,14.70
2019-02-27T10:06:21.366Z,13.43
2019-02-27T10:08:50.575Z,11.33
2019-02-27T10:11:22.219Z,13.10
2019-02-27T10:13:50.941Z,15.83
2019-02-27T10:16:20.275Z,13.77
2019-02-27T10:18:49.437Z,12.47
2019-02-27T10:21:18.637Z,12.70
2019-02-27T10:23:50.918Z,11.87
2019-02-27T10:26:22.608Z,14.10
2019-02-27T10:28:51.369Z,15.43
2019-02-27T10:31:20.575Z,12.23
2019-02-27T10:33:49.732Z,13.57
2019-02-27T10:36:19.277Z,11.47
2019-02-27T10:38:48.443Z,13.37
2019-02-27T10:41:17.691Z,10.43
2019-02-27T10:43:46.933Z,10.50
2019-02-27T10:46:16.101Z,10.53
2019-02-27T10:48:46.965Z,16.97
2019-02-27T10:51:16.842Z,16.93
2019-02-27T10:53:46.049Z,13.07
2019-02-27T10:56:15.346Z,10.57
2019-02-27T10:58:47.607Z,13.07
2019-02-27T11:01:18.245Z,10.50
2019-02-27T11:03:47.409Z,13.40
2019-02-27T11:06:16.934Z,11.03
2019-02-27T11:08:46.285Z,11.77
2019-02-27T11:11:16.278Z,11.23
2019-02-27T11:13:48.416Z,12.03
2019-02-27T11:16:20.870Z,17.10
2019-02-27T11:18:47.940Z,13.10
2019-02-27T11:21:17.095Z,14.00
2019-02-27T11:23:46.381Z,11.57
2019-02-27T11:26:16.739Z,13.43
2019-02-27T11:28:47.741Z,10.77
2019-02-27T11:31:20.653Z,10.43
2019-02-27T11:33:50.515Z,8.90
2019-02-27T11:36:20.436Z,12.70
2019-02-27T11:41:39.832Z,10.63
2019-02-27T11:44:13.867Z,13.97
2019-02-27T11:46:40.940Z,14.57
2019-02-27T11:49:13.191Z,16.00
2019-02-27T11:51:43.009Z,10.77
2019-02-27T11:54:14.521Z,13.03
2019-02-27T11:56:48.050Z,10.57
2019-02-27T11:59:17.274Z,10.03
2019-02-27T12:01:47.677Z,16.97
2019-02-27T12:04:19.526Z,12.47
2019-02-27T12:06:48.671Z,11.37
2019-02-27T12:09:18.096Z,15.03
2019-02-27T12:11:49.448Z,12.00
2019-02-27T12:14:19.064Z,15.60
2019-02-27T12:16:51.686Z,10.70
2019-02-27T12:19:19.539Z,11.40
2019-02-27T12:21:51.639Z,12.10
2019-02-27T12:24:22.052Z,11.50
2019-02-27T12:26:56.873Z,10.03
2019-02-27T12:29:32.266Z,10.63
2019-02-27T12:32:14.348Z,9.17
2019-02-27T12:34:45.850Z,13.33
2019-02-27T12:37:27.506Z,10.60
2019-02-27T12:39:49.620Z,11.17
2019-02-27T12:42:21.175Z,9.30
2019-02-27T12:44:53.681Z,9.60
2019-02-27T12:47:31.770Z,9.30
2019-02-27T12:50:09.496Z,10.00
2019-02-27T12:52:48.162Z,11.13
2019-02-27T12:55:20.549Z,10.60
2019-02-27T12:57:54.190Z,9.13
2019-02-27T13:00:31.696Z,10.93
2019-02-27T13:03:09.314Z,7.80
2019-02-27T13:05:39.230Z,11.77
2019-02-27T13:08:11.358Z,6.33
2019-02-27T13:10:43.809Z,10.53
2019-02-27T13:13:15.369Z,10.63
2019-02-27T13:15:46.189Z,6.55
2019-02-27T13:18:21.089Z,7.28
2019-02-27T13:20:51.179Z,14.60
2019-02-27T13:23:20.761Z,11.78
2019-02-27T13:25:50.883Z,10.55
2019-02-27T13:28:23.381Z,9.73
2019-02-27T13:30:53.743Z,12.47
2019-02-27T13:33:51.060Z,9.10
2019-02-27T13:36:20.457Z,10.82
2019-02-27T13:38:53.493Z,9.43
2019-02-27T13:41:26.203Z,7.08
2019-02-27T13:43:58.277Z,7.55
2019-02-27T13:46:29.775Z,21.20
2019-02-27T13:49:01.547Z,10.15
2019-02-27T13:51:37.275Z,7.90
2019-02-27T13:54:10.182Z,8.70
2019-02-27T13:56:46.500Z,10.98
2019-02-27T13:59:21.363Z,10.13
2019-02-27T14:02:00.629Z,12.03
2019-02-27T14:04:35.027Z,9.28
2019-02-27T14:07:04.438Z,7.95
2019-02-27T14:09:35.352Z,8.58
2019-02-27T14:12:19.813Z,11.45
2019-02-27T14:14:53.416Z,9.88
2019-02-27T14:17:42.104Z,10.05
2019-02-27T14:20:19.280Z,10.30
2019-02-27T14:22:55.528Z,6.30
2019-02-27T14:25:33.478Z,8.38
2019-02-27T14:28:06.711Z,12.70
2019-02-27T14:30:43.873Z,7.70
2019-02-27T14:33:15.839Z,8.40
2019-02-27T14:35:58.361Z,5.60
2019-02-27T14:38:28.396Z,12.73
2019-02-27T14:40:58.012Z,6.93
2019-02-27T14:43:28.771Z,9.03
2019-02-27T14:45:58.459Z,7.47
2019-02-27T14:48:28.321Z,6.53
2019-02-27T14:50:59.739Z,6.63
2019-02-27T14:53:29.043Z,9.00
2019-02-27T14:55:59.145Z,7.97
2019-02-27T14:58:29.164Z,7.33
2019-02-27T15:00:58.934Z,5.87
2019-02-27T15:03:29.990Z,4.80
2019-02-27T15:05:59.426Z,5.90
2019-02-27T15:08:33.995Z,7.53
2019-02-27T15:11:09.010Z,7.67
2019-02-27T15:13:38.924Z,6.07
2019-02-27T15:16:15.411Z,6.70
2019-02-27T15:18:44.902Z,8.47
2019-02-27T15:21:14.223Z,3.63
2019-02-27T15:23:43.939Z,5.73
2019-02-27T15:26:16.331Z,5.00
2019-02-27T15:28:47.444Z,3.70
2019-02-27T15:31:21.350Z,5.27
2019-02-27T15:33:49.913Z,5.63
2019-02-27T15:36:20.427Z,4.73
2019-02-27T15:38:51.008Z,7.23
2019-02-27T15:41:21.649Z,7.83
2019-02-27T15:44:00.122Z,6.80
2019-02-27T15:46:29.627Z,6.27
2019-02-27T15:49:00.397Z,5.20
2019-02-27T15:51:32.358Z,6.03
2019-02-27T15:54:00.970Z,6.07
2019-02-27T15:56:30.480Z,6.40
2019-02-27T15:59:05.056Z,9.60
2019-02-27T16:01:33.065Z,11.07
2019-02-27T16:04:02.675Z,9.07
2019-02-27T16:06:31.912Z,10.90
2019-02-27T16:09:01.206Z,7.80
2019-02-27T16:11:30.440Z,10.87
2019-02-27T16:14:01.937Z,13.23
2019-02-27T16:16:31.169Z,8.00
2019-02-27T16:19:02.238Z,9.07
2019-02-27T16:21:31.403Z,12.80
2019-02-27T16:24:00.669Z,14.93
2019-02-27T16:26:30.033Z,11.20
2019-02-27T16:28:59.247Z,14.23
2019-02-27T16:31:28.529Z,11.63
2019-02-27T16:33:58.521Z,13.40
2019-02-27T16:36:36.056Z,11.90
2019-02-27T16:38:59.590Z,14.90
2019-02-27T16:41:29.304Z,8.23
2019-02-27T16:43:58.581Z,10.77
2019-02-27T16:46:27.887Z,9.33
2019-02-27T16:48:59.372Z,10.60
2019-02-27T16:51:31.187Z,8.20
2019-02-27T16:53:59.523Z,9.97
2019-02-27T16:56:28.730Z,12.53
2019-02-27T16:58:58.312Z,9.20
2019-02-27T17:01:29.532Z,8.43
2019-02-27T17:04:00.403Z,8.80
2019-02-27T17:06:29.712Z,11.90
2019-02-27T17:08:58.905Z,14.37
2019-02-27T17:11:29.411Z,14.70
2019-02-27T17:13:59.075Z,10.93
2019-02-27T17:16:28.226Z,13.27
2019-02-27T17:19:01.810Z,10.77
2019-02-27T17:21:35.193Z,12.83
2019-02-27T17:24:05.119Z,13.33
2019-02-27T17:26:39.187Z,15.70
2019-02-27T17:29:10.708Z,14.80
2019-02-27T17:31:48.961Z,13.53
2019-02-27T17:34:13.784Z,13.90
2019-02-27T17:36:43.708Z,16.43
2019-02-27T17:39:13.843Z,15.10
2019-02-27T17:41:45.683Z,13.80
2019-02-27T17:44:15.378Z,14.63
2019-02-27T17:46:46.099Z,13.13
2019-02-27T17:49:15.654Z,13.20
2019-02-27T17:51:47.182Z,13.50
2019-02-27T17:54:17.831Z,13.30
2019-02-27T17:56:49.979Z,14.80
2019-02-27T17:59:20.188Z,14.47
2019-02-27T18:01:51.481Z,12.20
2019-02-27T18:04:24.329Z,12.53
2019-02-27T18:06:53.776Z,16.33
2019-02-27T18:09:26.386Z,13.60
2019-02-27T18:11:55.066Z,24.90
2019-02-27T18:14:27.517Z,22.67
2019-02-27T18:16:59.251Z,28.93
2019-02-27T18:19:28.392Z,24.33
2019-02-27T18:21:57.701Z,25.90
2019-02-27T18:24:27.237Z,28.10
2019-02-27T18:26:56.746Z,25.60
2019-02-27T18:29:28.369Z,27.73
2019-02-27T18:31:58.736Z,27.33
2019-02-27T18:34:29.022Z,29.97
2019-02-27T18:36:58.884Z,26.77
2019-02-27T18:39:28.195Z,25.90
2019-02-27T18:41:58.069Z,27.93
2019-02-27T18:44:28.176Z,21.97
2019-02-27T18:47:02.429Z,29.40
2019-02-27T18:49:32.789Z,23.40
2019-02-27T18:52:06.449Z,24.63
2019-02-27T18:54:35.128Z,25.40
2019-02-27T18:57:04.855Z,25.30
2019-02-27T18:59:34.888Z,27.87
2019-02-27T19:02:07.759Z,25.17
2019-02-27T19:04:39.529Z,19.90
2019-02-27T19:07:12.787Z,26.00
2019-02-27T19:09:42.689Z,30.17
2019-02-27T19:12:14.792Z,31.93
2019-02-27T19:14:48.166Z,28.20
2019-02-27T19:17:17.512Z,26.97
2019-02-27T19:19:48.976Z,40.03
2019-02-27T19:22:21.199Z,31.13
2019-02-27T19:24:50.977Z,30.47
2019-02-27T19:27:22.670Z,28.53
2019-02-27T19:29:52.479Z,28.20
2019-02-27T19:32:23.322Z,29.90
2019-02-27T19:34:53.300Z,27.20
2019-02-27T19:37:25.067Z,32.30
2019-02-27T19:39:56.299Z,37.33
2019-02-27T19:42:26.772Z,34.97
2019-02-27T19:44:56.001Z,28.10
2019-02-27T19:47:25.241Z,26.17
2019-02-27T19:49:54.661Z,24.43
2019-02-27T19:52:26.847Z,28.47
2019-02-27T19:54:55.057Z,24.67
2019-02-27T19:57:24.699Z,21.67
2019-02-27T19:59:59.136Z,30.37
2019-02-27T20:02:27.738Z,27.27
2019-02-27T20:05:00.488Z,25.03
2019-02-27T20:07:32.899Z,27.07
2019-02-27T20:10:05.662Z,29.03
2019-02-27T20:12:35.006Z,29.53
2019-02-27T20:15:08.394Z,29.90
2019-02-27T20:17:38.638Z,36.87
2019-02-27T20:20:08.816Z,38.10
2019-02-27T20:22:39.511Z,40.63
2019-02-27T20:25:10.362Z,27.57
2019-02-27T20:27:39.721Z,23.67
2019-02-27T20:30:14.049Z,20.57
2019-02-27T20:32:42.016Z,25.90
2019-02-27T20:35:11.637Z,17.80
2019-02-27T20:37:41.379Z,18.20
2019-02-27T20:40:11.643Z,20.93
2019-02-27T20:42:40.902Z,23.97
2019-02-27T20:45:12.356Z,22.80
2019-02-27T20:47:42.361Z,25.37
2019-02-27T20:50:21.450Z,25.90
2019-02-27T20:52:50.174Z,24.00
2019-02-27T20:55:19.565Z,27.10
2019-02-27T20:57:49.125Z,22.70
2019-02-27T21:00:19.082Z,23.90
2019-02-27T21:02:50.328Z,26.87
2019-02-27T21:05:21.098Z,28.37
2019-02-27T21:07:50.409Z,25.83
2019-02-27T21:10:21.178Z,26.27
2019-02-27T21:12:53.837Z,24.93
2019-02-27T21:15:21.671Z,23.53
2019-02-27T21:17:57.606Z,21.03
2019-02-27T21:20:25.001Z,22.23
2019-02-27T21:22:54.289Z,23.67
2019-02-27T21:25:23.553Z,20.77
2019-02-27T21:27:55.998Z,21.63
2019-02-27T21:30:25.460Z,19.00
2019-02-27T21:32:55.098Z,19.93
2019-02-27T21:35:28.696Z,23.40
2019-02-27T21:37:55.566Z,23.67
2019-02-27T21:40:27.209Z,23.03
2019-02-27T21:42:56.834Z,19.73
2019-02-27T21:45:26.018Z,20.67
2019-02-27T21:47:55.386Z,23.27
2019-02-27T21:50:24.611Z,28.43
2019-02-27T21:52:54.738Z,22.93
2019-02-27T21:55:24.915Z,19.63
2019-02-27T21:57:58.067Z,23.27
2019-02-27T22:00:26.238Z,24.43
2019-02-27T22:02:55.676Z,22.13
2019-02-27T22:05:25.008Z,23.73
2019-02-27T22:07:54.349Z,22.70
2019-02-27T22:10:23.614Z,23.40
2019-02-27T22:12:53.125Z,25.30
2019-02-27T22:15:24.706Z,28.43
2019-02-27T22:17:53.881Z,26.50
2019-02-27T22:20:25.813Z,25.40
2019-02-27T22:22:54.043Z,26.97
2019-02-27T22:25:32.375Z,23.90
2019-02-27T22:28:01.597Z,26.87
2019-02-27T22:30:33.748Z,26.97
2019-02-27T22:33:15.202Z,27.13
2019-02-27T22:35:44.445Z,24.33
2019-02-27T22:38:13.704Z,23.53
2019-02-27T22:40:42.983Z,22.87
2019-02-27T22:43:12.197Z,23.87
2019-02-27T22:45:44.009Z,29.07
2019-02-27T22:48:12.379Z,23.63
2019-02-27T22:50:41.908Z,23.33
2019-02-27T22:53:11.318Z,22.97
2019-02-27T22:55:42.245Z,24.90
2019-02-27T22:58:11.895Z,26.43
2019-02-27T23:01:14.982Z,24.23
2019-02-27T23:03:46.569Z,28.33
2019-02-27T23:06:15.817Z,30.63
2019-02-27T23:08:44.969Z,26.17
2019-02-27T23:11:14.407Z,24.37
2019-02-27T23:13:47.505Z,24.97
2019-02-27T23:16:17.807Z,23.77
2019-02-27T23:18:46.998Z,27.93
2019-02-27T23:21:16.348Z,22.57
2019-02-27T23:23:45.572Z,20.53
2019-02-27T23:26:19.755Z,20.97
2019-02-27T23:28:45.737Z,19.70
2019-02-27T23:31:22.398Z,22.20
2019-02-27T23:33:48.759Z,20.10
2019-02-27T23:36:21.964Z,23.53
2019-02-27T23:38:50.532Z,21.13
2019-02-27T23:41:22.638Z,23.07
2019-02-27T23:43:50.630Z,20.87
2019-02-27T23:46:20.249Z,24.20
2019-02-27T23:48:49.485Z,28.43
2019-02-27T23:51:18.743Z,26.77
2019-02-27T23:53:48.014Z,23.70
2019-02-27T23:56:20.211Z,25.50
2019-02-27T23:58:49.042Z,21.07
